createdAt,value
2023-05-29T00:04:02.176Z,100383.53
2023-05-29T00:09:03.862Z,100396.13
2023-05-29T00:14:06.062Z,100391.09
2023-05-29T00:19:10.005Z,100389.66
2023-05-29T00:24:11.533Z,100387.63
2023-05-29T00:29:13.043Z,100393.78
2023-05-29T00:34:14.496Z,100400.72
2023-05-29T00:39:16.425Z,100390.13
2023-05-29T00:44:22.188Z,100384.91
2023-05-29T00:49:24.482Z,100381.59
2023-05-29T00:54:31.116Z,100384.25
2023-05-29T00:59:34.298Z,100382.47
2023-05-29T01:04:35.866Z,100380.72
2023-05-29T01:09:38.090Z,100384.63
2023-05-29T01:14:59.019Z,100391.13
2023-05-29T01:20:06.033Z,100393.31
2023-05-29T01:25:36.365Z,100382.84
2023-05-29T01:30:39.197Z,100394.97
2023-05-29T01:35:40.910Z,100391.66
2023-05-29T01:40:42.379Z,100392.41
2023-05-29T01:45:44.756Z,100391.00
2023-05-29T01:50:47.281Z,100375.53
2023-05-29T01:55:49.037Z,100373.19
2023-05-29T02:00:50.644Z,100373.69
2023-05-29T02:05:52.117Z,100371.38
2023-05-29T02:10:54.349Z,100374.47
2023-05-29T02:15:56.043Z,100374.97
2023-05-29T02:20:57.865Z,100376.22
2023-05-29T02:25:59.673Z,100377.72
2023-05-29T02:31:01.183Z,100373.94
2023-05-29T02:36:02.640Z,100371.59
2023-05-29T02:41:04.182Z,100379.25
2023-05-29T02:46:05.787Z,100372.34
2023-05-29T02:51:07.444Z,100373.06
2023-05-29T02:56:10.107Z,100362.38
2023-05-29T03:01:11.921Z,100361.00
2023-05-29T03:06:18.909Z,100369.00
2023-05-29T03:11:22.101Z,100373.56
2023-05-29T03:16:23.686Z,100373.56
2023-05-29T03:21:25.528Z,100377.25
2023-05-29T03:26:27.584Z,100378.72
2023-05-29T03:31:29.162Z,100379.69
2023-05-29T03:36:30.619Z,100390.50
2023-05-29T03:41:32.066Z,100394.91
2023-05-29T03:46:33.556Z,100405.81
2023-05-29T03:51:35.151Z,100399.22
2023-05-29T03:56:37.092Z,100395.56
2023-05-29T04:01:38.715Z,100395.66
2023-05-29T04:06:40.245Z,100397.47
2023-05-29T04:11:42.783Z,100395.03
2023-05-29T04:16:44.523Z,100396.56
2023-05-29T04:21:46.414Z,100397.34
2023-05-29T04:26:48.009Z,100403.75
2023-05-29T04:31:49.525Z,100420.84
2023-05-29T04:36:50.970Z,100418.50
2023-05-29T04:41:52.946Z,100417.78
2023-05-29T04:46:54.507Z,100430.00
2023-05-29T04:51:56.104Z,100423.47
2023-05-29T04:56:57.554Z,100420.00
2023-05-29T05:01:59.044Z,100428.28
2023-05-29T05:07:00.533Z,100425.06
2023-05-29T05:12:02.440Z,100429.53
2023-05-29T05:17:04.071Z,100433.22
2023-05-29T05:22:05.517Z,100429.50
2023-05-29T05:27:07.467Z,100432.88
2023-05-29T05:32:08.990Z,100443.72
2023-05-29T05:37:11.088Z,100436.94
2023-05-29T05:42:12.523Z,100444.41
2023-05-29T05:47:14.337Z,100447.91
2023-05-29T05:52:16.078Z,100444.25
2023-05-29T05:57:17.536Z,100442.25
2023-05-29T06:02:19.126Z,100431.31
2023-05-29T06:07:20.648Z,100446.75
2023-05-29T06:12:22.196Z,100449.09
2023-05-29T06:17:24.730Z,100441.34
2023-05-29T06:22:26.222Z,100456.56
2023-05-29T06:27:27.687Z,100448.91
2023-05-29T06:32:29.649Z,100447.72
2023-05-29T06:37:31.519Z,100446.75
2023-05-29T06:42:33.009Z,100463.47
2023-05-29T06:47:34.573Z,100467.59
2023-05-29T06:52:36.209Z,100468.03
2023-05-29T06:57:37.681Z,100464.84
2023-05-29T07:02:39.282Z,100472.31
2023-05-29T07:07:40.841Z,100468.50
2023-05-29T07:12:42.319Z,100474.94
2023-05-29T07:17:43.821Z,100473.44
2023-05-29T07:22:45.677Z,100472.53
2023-05-29T07:27:47.176Z,100472.53
2023-05-29T07:32:48.663Z,100475.44
2023-05-29T07:37:50.857Z,100475.31
2023-05-29T07:42:52.339Z,100478.41
2023-05-29T07:47:53.809Z,100476.75
2023-05-29T07:52:56.997Z,100485.34
2023-05-29T08:02:59.961Z,100494.09
2023-05-29T08:08:01.679Z,100488.03
2023-05-29T08:13:03.215Z,100488.50
2023-05-29T08:18:05.443Z,100488.44
2023-05-29T08:23:07.014Z,100491.25
2023-05-29T08:28:08.484Z,100479.03
2023-05-29T08:33:10.072Z,100483.88
2023-05-29T08:38:11.610Z,100481.13
2023-05-29T08:43:20.919Z,100482.16
2023-05-29T08:48:26.339Z,100490.31
2023-05-29T08:53:27.883Z,100483.31
2023-05-29T08:58:29.516Z,100486.16
2023-05-29T09:03:31.078Z,100480.56
2023-05-29T09:08:34.087Z,100474.69
2023-05-29T09:13:35.858Z,100483.81
2023-05-29T09:18:37.354Z,100482.34
2023-05-29T09:23:38.809Z,100482.00
2023-05-29T09:28:40.974Z,100495.94
2023-05-29T09:33:49.907Z,100489.28
2023-05-29T09:38:54.958Z,100502.34
2023-05-29T09:44:01.903Z,100490.84
2023-05-29T09:49:06.825Z,100495.13
2023-05-29T09:54:18.215Z,100492.66
2023-05-29T09:59:22.188Z,100489.72
2023-05-29T10:04:25.259Z,100482.34
2023-05-29T10:09:28.455Z,100474.78
2023-05-29T10:14:32.844Z,100483.25
2023-05-29T10:19:37.918Z,100476.03
2023-05-29T10:24:39.749Z,100471.16
2023-05-29T10:29:54.554Z,100463.13
2023-05-29T10:35:09.978Z,100473.25
2023-05-29T10:40:15.719Z,100471.31
2023-05-29T10:45:29.452Z,100468.53
2023-05-29T10:50:39.378Z,100451.06
2023-05-29T10:55:42.067Z,100455.25
2023-05-29T11:00:43.981Z,100458.28
2023-05-29T11:06:09.095Z,100453.16
2023-05-29T11:11:16.754Z,100453.19
2023-05-29T11:16:37.984Z,100436.63
2023-05-29T11:21:54.126Z,100449.00
2023-05-29T11:26:57.467Z,100436.09
2023-05-29T11:32:03.984Z,100429.34
2023-05-29T11:37:05.987Z,100434.63
2023-05-29T11:42:08.646Z,100443.56
2023-05-29T11:47:10.147Z,100444.09
2023-05-29T11:57:22.244Z,100441.16
2023-05-29T12:02:26.265Z,100429.94
2023-05-29T12:07:27.810Z,100419.50
2023-05-29T12:12:30.528Z,100421.09
2023-05-29T12:17:32.591Z,100426.41
2023-05-29T12:22:36.046Z,100413.81
2023-05-29T12:27:43.491Z,100412.19
2023-05-29T12:32:54.250Z,100402.88
2023-05-29T12:38:00.927Z,100398.09
2023-05-29T12:43:04.472Z,100404.13
2023-05-29T12:48:10.872Z,100402.06
2023-05-29T12:53:15.047Z,100395.97
2023-05-29T12:58:16.964Z,100396.47
2023-05-29T13:03:19.013Z,100387.47
2023-05-29T13:08:21.376Z,100393.38
2023-05-29T13:13:23.941Z,100380.03
2023-05-29T13:18:25.454Z,100376.84
2023-05-29T13:23:29.062Z,100376.41
2023-05-29T13:28:30.870Z,100365.81
2023-05-29T13:33:32.815Z,100361.78
2023-05-29T13:38:34.262Z,100359.19
2023-05-29T13:43:43.645Z,100365.13
2023-05-29T13:48:46.483Z,100363.28
2023-05-29T13:53:47.954Z,100353.66
2023-05-29T13:58:49.413Z,100355.16
2023-05-29T14:03:51.104Z,100364.31
2023-05-29T14:08:52.886Z,100344.31
2023-05-29T14:13:54.340Z,100340.09
2023-05-29T14:18:55.796Z,100344.28
2023-05-29T14:23:57.261Z,100336.84
2023-05-29T14:29:09.386Z,100335.00
2023-05-29T14:34:15.331Z,100332.84
2023-05-29T14:39:16.842Z,100343.28
2023-05-29T14:44:18.918Z,100328.84
2023-05-29T14:49:20.819Z,100333.38
2023-05-29T14:54:22.324Z,100332.09
2023-05-29T14:59:24.477Z,100337.63
2023-05-29T15:04:26.087Z,100344.00
2023-05-29T15:09:27.774Z,100336.72
2023-05-29T15:14:29.421Z,100341.38
2023-05-29T15:19:31.526Z,100345.13
2023-05-29T15:24:32.994Z,100338.75
2023-05-29T15:29:36.072Z,100338.59
2023-05-29T15:34:37.581Z,100329.47
2023-05-29T15:39:39.771Z,100326.91
2023-05-29T15:44:41.209Z,100329.47
2023-05-29T15:49:42.656Z,100327.94
2023-05-29T15:54:44.346Z,100328.56
2023-05-29T15:59:45.932Z,100329.22
2023-05-29T16:04:59.020Z,100337.50
2023-05-29T16:10:07.894Z,100336.59
2023-05-29T16:15:09.703Z,100327.91
2023-05-29T16:20:12.149Z,100330.63
2023-05-29T16:25:13.728Z,100333.91
2023-05-29T16:30:15.370Z,100337.69
2023-05-29T16:35:16.982Z,100341.25
2023-05-29T16:40:21.109Z,100351.25
2023-05-29T16:45:22.644Z,100338.72
2023-05-29T16:50:24.824Z,100338.88
2023-05-29T16:55:26.667Z,100338.69
2023-05-29T17:00:28.341Z,100348.84
2023-05-29T17:05:29.772Z,100341.78
2023-05-29T17:10:34.066Z,100345.91
2023-05-29T17:15:35.533Z,100349.22
2023-05-29T17:20:37.080Z,100346.84
2023-05-29T17:25:38.598Z,100341.81
2023-05-29T17:30:40.084Z,100348.00
2023-05-29T17:35:41.572Z,100345.28
2023-05-29T17:40:43.077Z,100344.91
2023-05-29T17:45:47.090Z,100344.81
2023-05-29T17:50:48.773Z,100351.75
2023-05-29T17:55:50.381Z,100350.91
2023-05-29T18:00:52.256Z,100356.25
2023-05-29T18:05:54.946Z,100361.59
2023-05-29T18:10:57.003Z,100361.00
2023-05-29T18:15:58.719Z,100370.84
2023-05-29T18:21:00.348Z,100379.91
2023-05-29T18:26:02.077Z,100380.53
2023-05-29T18:31:03.698Z,100384.09
2023-05-29T18:36:05.368Z,100394.00
2023-05-29T18:41:07.011Z,100393.69
2023-05-29T18:46:08.649Z,100405.94
2023-05-29T18:51:11.463Z,100408.03
2023-05-29T18:56:13.005Z,100409.34
2023-05-29T19:01:29.973Z,100411.25
2023-05-29T19:06:33.537Z,100410.78
2023-05-29T19:11:35.089Z,100415.28
2023-05-29T19:16:36.541Z,100409.63
2023-05-29T19:21:38.420Z,100418.28
2023-05-29T19:26:42.776Z,100406.16
2023-05-29T19:31:44.291Z,100417.66
2023-05-29T19:36:45.833Z,100419.56
2023-05-29T19:41:47.305Z,100422.66
2023-05-29T19:46:49.085Z,100434.31
2023-05-29T19:51:59.107Z,100434.31
2023-05-29T19:57:01.014Z,100445.28
2023-05-29T20:02:02.855Z,100448.66
2023-05-29T20:07:04.576Z,100453.84
2023-05-29T20:12:06.973Z,100445.06
2023-05-29T20:17:08.676Z,100450.25
2023-05-29T20:22:10.220Z,100458.97
2023-05-29T20:27:11.894Z,100465.50
2023-05-29T20:32:13.414Z,100462.25
2023-05-29T20:37:15.493Z,100468.28
2023-05-29T20:42:17.532Z,100462.09
2023-05-29T20:47:19.669Z,100467.25
2023-05-29T20:52:21.977Z,100462.09
2023-05-29T20:57:23.554Z,100462.28
2023-05-29T21:02:25.067Z,100461.44
2023-05-29T21:07:35.281Z,100467.75
2023-05-29T21:12:37.167Z,100471.53
2023-05-29T21:17:38.783Z,100468.44
2023-05-29T21:22:40.535Z,100477.34
2023-05-29T21:27:42.009Z,100473.75
2023-05-29T21:32:43.652Z,100476.97
2023-05-29T21:37:45.658Z,100472.00
2023-05-29T21:42:51.762Z,100474.06
2023-05-29T21:47:54.943Z,100470.63
2023-05-29T21:52:56.709Z,100472.31
2023-05-29T21:57:58.164Z,100477.44
2023-05-29T22:02:59.888Z,100478.25
2023-05-29T22:08:01.428Z,100470.91
2023-05-29T22:13:03.691Z,100474.31
2023-05-29T22:18:05.627Z,100485.63
2023-05-29T22:23:17.046Z,100483.50
2023-05-29T22:28:19.714Z,100491.72
2023-05-29T22:33:21.891Z,100493.69
2023-05-29T22:38:23.379Z,100490.44
2023-05-29T22:43:24.844Z,100480.97
2023-05-29T22:48:27.050Z,100487.75
2023-05-29T22:53:28.756Z,100477.16
2023-05-29T22:58:30.217Z,100476.16
2023-05-29T23:03:31.845Z,100476.09
2023-05-29T23:08:33.450Z,100478.09
2023-05-29T23:13:34.947Z,100490.84
2023-05-29T23:18:37.017Z,100488.97
2023-05-29T23:23:38.797Z,100473.19
2023-05-29T23:28:40.702Z,100474.41
2023-05-29T23:33:42.898Z,100481.47
2023-05-29T23:38:44.359Z,100480.06
2023-05-29T23:43:46.184Z,100479.16
2023-05-29T23:48:48.708Z,100486.06
2023-05-29T23:53:50.259Z,100487.50
2023-05-29T23:58:52.389Z,100485.63
